createdAt,value
2018-05-26T00:00:45.871Z,10.84
2018-05-26T00:06:40.859Z,11.65
2018-05-26T00:12:35.906Z,11.62
2018-05-26T00:18:30.885Z,12.02
2018-05-26T00:24:25.903Z,11.77
2018-05-26T00:30:20.891Z,11.46
2018-05-26T00:36:15.884Z,11.03
2018-05-26T00:42:10.912Z,10.75
2018-05-26T00:48:05.885Z,11.26
2018-05-26T00:54:00.911Z,11.67
2018-05-26T00:59:55.937Z,10.39
2018-05-26T01:05:50.935Z,11.59
2018-05-26T01:11:45.928Z,11.73
2018-05-26T01:17:40.894Z,11.41
2018-05-26T01:23:35.962Z,11.91
2018-05-26T01:29:30.979Z,12.23
2018-05-26T01:35:26.007Z,11.94
2018-05-26T01:41:20.936Z,11.22
2018-05-26T01:47:15.921Z,11.79
2018-05-26T01:53:10.992Z,13.28
2018-05-26T01:59:05.929Z,12.46
2018-05-26T02:05:00.953Z,12.24
2018-05-26T02:10:55.922Z,12.64
2018-05-26T02:16:50.949Z,13.59
2018-05-26T02:22:46.025Z,12.53
2018-05-26T02:28:40.978Z,13.25
2018-05-26T02:34:35.947Z,12.13
2018-05-26T02:40:30.997Z,12.82
2018-05-26T02:46:25.993Z,14.31
2018-05-26T02:52:20.975Z,14.12
2018-05-26T02:58:15.989Z,12.19
2018-05-26T03:04:11.037Z,13.69
2018-05-26T03:10:06.008Z,14.34
2018-05-26T03:16:01.002Z,14.12
2018-05-26T03:21:56.029Z,13.66
2018-05-26T03:27:51.069Z,15.97
2018-05-26T03:33:45.996Z,15.13
2018-05-26T03:39:41.017Z,17.41
2018-05-26T03:45:35.987Z,15.71
2018-05-26T03:51:30.999Z,14.21
2018-05-26T03:57:26.026Z,14.44
2018-05-26T04:03:21.023Z,14.08
2018-05-26T04:09:16.040Z,12.82
2018-05-26T04:15:11.084Z,16.89
2018-05-26T04:21:06.079Z,15.4
2018-05-26T04:27:01.062Z,13.99
2018-05-26T04:32:56.035Z,15.37
2018-05-26T04:38:51.073Z,14.77
2018-05-26T04:44:46.022Z,15.59
2018-05-26T04:50:41.050Z,16
2018-05-26T04:56:36.061Z,15.35
2018-05-26T05:02:31.083Z,15.61
2018-05-26T05:08:26.056Z,16.06
2018-05-26T05:14:21.082Z,17.71
2018-05-26T05:20:16.079Z,16.3
2018-05-26T05:26:11.059Z,16.08
2018-05-26T05:32:06.061Z,17.36
2018-05-26T05:38:01.093Z,15.3
2018-05-26T05:43:56.111Z,17.08
2018-05-26T05:49:51.094Z,16.93
2018-05-26T05:55:46.063Z,16.59
2018-05-26T06:01:41.102Z,16.61
2018-05-26T06:07:37.220Z,16.54
2018-05-26T06:13:31.122Z,18.95
2018-05-26T06:19:26.115Z,17.22
2018-05-26T06:25:21.198Z,18.77
2018-05-26T06:31:16.127Z,18.36
2018-05-26T06:37:11.121Z,18.33
2018-05-26T06:43:06.101Z,17.6
2018-05-26T06:49:01.108Z,19.86
2018-05-26T06:54:56.137Z,19.71
2018-05-26T07:00:51.155Z,18.64
2018-05-26T07:06:46.115Z,17.98
2018-05-26T07:12:41.220Z,17.4
2018-05-26T07:18:36.143Z,16.46
2018-05-26T07:24:31.161Z,17.2
2018-05-26T07:30:26.132Z,15.28
2018-05-26T07:36:21.197Z,14.14
2018-05-26T07:42:16.153Z,14.9
2018-05-26T07:48:11.244Z,14.49
2018-05-26T07:54:06.152Z,14.8
2018-05-26T08:00:01.194Z,13.9
2018-05-26T08:05:56.241Z,14.46
2018-05-26T08:11:51.180Z,13.08
2018-05-26T08:17:46.210Z,12.38
2018-05-26T08:23:41.173Z,14.06
2018-05-26T08:29:36.192Z,14.73
2018-05-26T08:35:31.205Z,14.65
2018-05-26T08:41:26.225Z,15.48
2018-05-26T08:47:21.220Z,15.56
2018-05-26T08:53:16.252Z,14.58
2018-05-26T08:59:11.232Z,15.66
2018-05-26T09:05:06.206Z,16.46
2018-05-26T09:11:01.269Z,15.87
2018-05-26T09:16:56.253Z,16.34
2018-05-26T09:22:51.264Z,15.74
2018-05-26T09:28:46.220Z,14.84
2018-05-26T09:34:41.847Z,14.32
2018-05-26T09:40:36.256Z,13.19
2018-05-26T09:46:31.238Z,13.7
2018-05-26T09:52:26.272Z,14.33
2018-05-26T09:58:21.277Z,12.64
2018-05-26T10:04:16.338Z,12.85
2018-05-26T10:10:11.264Z,11.77
2018-05-26T10:16:06.290Z,12.65
2018-05-26T10:22:01.331Z,11.61
2018-05-26T10:27:56.274Z,9.13
2018-05-26T10:33:51.317Z,8.03
2018-05-26T10:39:46.345Z,8.05
2018-05-26T10:45:41.312Z,7.61
2018-05-26T10:51:36.342Z,6.86
2018-05-26T10:57:31.304Z,5.42
2018-05-26T11:03:26.300Z,5.46
2018-05-26T11:09:21.334Z,5.49
2018-05-26T11:15:16.304Z,5.72
2018-05-26T11:21:11.331Z,5.19
2018-05-26T11:27:06.376Z,5.43
2018-05-26T11:33:01.373Z,5.4
2018-05-26T11:38:56.422Z,5.17
2018-05-26T11:44:51.380Z,5.61
2018-05-26T11:50:46.355Z,5.79
2018-05-26T11:56:41.349Z,5.1
2018-05-26T12:02:36.370Z,5.13
2018-05-26T12:08:31.367Z,4.94
2018-05-26T12:14:26.375Z,4.83
2018-05-26T12:20:21.409Z,5.56
2018-05-26T12:26:16.388Z,4.5
2018-05-26T12:32:11.403Z,5.02
2018-05-26T12:38:06.400Z,5.24
2018-05-26T12:44:01.382Z,5.05
2018-05-26T12:49:56.401Z,4.5
2018-05-26T12:55:51.435Z,4.88
2018-05-26T13:01:46.390Z,4.9
2018-05-26T13:07:41.416Z,4.45
2018-05-26T13:13:36.410Z,4.36
2018-05-26T13:19:31.430Z,4.87
2018-05-26T13:25:26.417Z,4.28
2018-05-26T13:31:21.419Z,4.46
2018-05-26T13:37:16.449Z,4.46
2018-05-26T13:43:11.456Z,4.36
2018-05-26T13:49:06.473Z,3.81
2018-05-26T13:55:01.473Z,4.33
2018-05-26T14:00:56.497Z,4.12
2018-05-26T14:06:51.470Z,4.17
2018-05-26T14:12:46.504Z,4.07
2018-05-26T14:18:41.482Z,4.67
2018-05-26T14:24:36.498Z,3.76
2018-05-26T14:30:31.554Z,4.07
2018-05-26T14:36:26.602Z,3.85
2018-05-26T14:42:21.485Z,4.02
2018-05-26T14:48:16.489Z,4.3
2018-05-26T14:54:11.489Z,4.1
2018-05-26T15:00:06.514Z,4.16
2018-05-26T15:06:01.550Z,3.82
2018-05-26T15:11:56.544Z,4.58
2018-05-26T15:17:51.501Z,4.1
2018-05-26T15:23:46.521Z,4.86
2018-05-26T15:29:41.546Z,4.74
2018-05-26T15:35:36.538Z,5.23
2018-05-26T15:41:31.548Z,4.73
2018-05-26T15:47:27.021Z,4.53
2018-05-26T15:53:21.577Z,5.02
2018-05-26T15:59:16.570Z,4.61
2018-05-26T16:05:11.591Z,5.33
2018-05-26T16:11:06.597Z,5.1
2018-05-26T16:17:01.654Z,5.47
2018-05-26T16:22:56.550Z,5.43
2018-05-26T16:28:51.567Z,4.96
2018-05-26T16:34:46.597Z,5.33
2018-05-26T16:40:41.579Z,5.57
2018-05-26T16:46:36.580Z,5.35
2018-05-26T16:52:31.608Z,5.79
2018-05-26T16:58:26.604Z,5.26
2018-05-26T17:04:21.604Z,5.42
2018-05-26T17:10:16.623Z,5.57
2018-05-26T17:16:11.591Z,5.98
2018-05-26T17:22:06.627Z,5.93
2018-05-26T17:28:01.693Z,6.33
2018-05-26T17:33:56.690Z,6.38
2018-05-26T17:39:51.616Z,6.53
2018-05-26T17:45:46.644Z,6.38
2018-05-26T17:51:41.648Z,6.74
2018-05-26T17:57:36.635Z,6.94
2018-05-26T18:03:31.646Z,6.43
2018-05-26T18:09:26.667Z,7.1
2018-05-26T18:15:21.659Z,6.91
2018-05-26T18:21:16.638Z,7.3
2018-05-26T18:27:11.682Z,7.86
2018-05-26T18:33:06.700Z,8.07
2018-05-26T18:39:01.741Z,8.92
2018-05-26T18:44:56.684Z,7.98
2018-05-26T18:50:51.735Z,8.71
2018-05-26T18:56:46.711Z,8.67
2018-05-26T19:02:41.691Z,8.98
2018-05-26T19:08:36.738Z,9.27
2018-05-26T19:14:31.770Z,8.54
2018-05-26T19:20:26.690Z,7.18
2018-05-26T19:26:21.726Z,6.94
2018-05-26T19:32:16.691Z,7.35
2018-05-26T19:38:11.730Z,6.84
2018-05-26T19:44:06.744Z,6.8
2018-05-26T19:50:01.796Z,7.27
2018-05-26T19:55:56.727Z,7.17
2018-05-26T20:01:51.745Z,6.67
2018-05-26T20:07:46.720Z,6.91
2018-05-26T20:13:41.786Z,6.91
2018-05-26T20:19:36.762Z,7.21
2018-05-26T20:25:31.762Z,7.24
2018-05-26T20:31:26.723Z,7.62
2018-05-26T20:37:21.730Z,6.86
2018-05-26T20:43:16.764Z,7.64
2018-05-26T20:49:11.795Z,7.88
2018-05-26T20:55:06.802Z,8.52
2018-05-26T21:01:01.772Z,9.52
2018-05-26T21:06:56.851Z,9.32
2018-05-26T21:12:51.844Z,9.14
2018-05-26T21:18:46.823Z,9.18
2018-05-26T21:24:41.820Z,8.54
2018-05-26T21:30:36.764Z,8.87
2018-05-26T21:36:31.763Z,8.99
2018-05-26T21:42:26.796Z,8.5
2018-05-26T21:48:21.834Z,8.91
2018-05-26T21:54:16.814Z,8.98
2018-05-26T22:00:11.965Z,8.87
2018-05-26T22:06:06.921Z,9.01
2018-05-26T22:12:01.836Z,8.39
2018-05-26T22:17:56.820Z,8.93
2018-05-26T22:23:51.821Z,9.21
2018-05-26T22:29:46.842Z,9.08
2018-05-26T22:35:41.882Z,9.75
2018-05-26T22:41:36.868Z,10.1
2018-05-26T22:47:31.856Z,9.83
2018-05-26T22:53:26.885Z,10.7
2018-05-26T22:59:21.869Z,10.09
2018-05-26T23:05:16.828Z,10.18
2018-05-26T23:11:11.869Z,9.7
2018-05-26T23:17:06.864Z,10.36
2018-05-26T23:23:01.867Z,10.11
2018-05-26T23:28:56.946Z,10.98
2018-05-26T23:34:51.951Z,10
2018-05-26T23:40:46.917Z,10.13
2018-05-26T23:46:41.903Z,10.94
2018-05-26T23:52:36.856Z,10.9
2018-05-26T23:58:31.912Z,10.2
